createdAt,value
2022-08-02T00:02:25.399Z,21.13
2022-08-02T00:04:56.988Z,21.04
2022-08-02T00:07:28.630Z,20.99
2022-08-02T00:10:05.597Z,20.95
2022-08-02T00:12:39.913Z,20.96
2022-08-02T00:15:16.025Z,20.93
2022-08-02T00:17:49.446Z,20.86
2022-08-02T00:20:21.260Z,20.82
2022-08-02T00:22:59.938Z,20.81
2022-08-02T00:25:34.561Z,20.83
2022-08-02T00:28:06.154Z,20.81
2022-08-02T00:30:38.449Z,20.78
2022-08-02T00:33:10.083Z,20.76
2022-08-02T00:35:47.286Z,20.72
2022-08-02T00:38:18.994Z,20.70
2022-08-02T00:40:56.485Z,20.67
2022-08-02T00:43:29.601Z,20.60
2022-08-02T00:46:03.207Z,20.50
2022-08-02T00:48:35.565Z,20.39
2022-08-02T00:51:13.954Z,20.28
2022-08-02T00:53:45.637Z,20.23
2022-08-02T00:56:17.245Z,20.21
2022-08-02T00:58:51.154Z,20.22
2022-08-02T01:01:38.572Z,20.24
2022-08-02T01:04:30.216Z,20.24
2022-08-02T01:07:12.887Z,20.23
2022-08-02T01:09:46.717Z,20.21
2022-08-02T01:12:20.746Z,20.20
2022-08-02T01:14:58.721Z,20.16
2022-08-02T01:17:59.462Z,20.08
2022-08-02T01:21:10.707Z,20.01
2022-08-02T01:23:57.597Z,20.00
2022-08-02T01:26:46.890Z,20.02
2022-08-02T01:29:34.842Z,19.99
2022-08-02T01:32:13.402Z,19.98
2022-08-02T01:35:04.467Z,19.95
2022-08-02T01:37:47.921Z,19.95
2022-08-02T01:40:27.754Z,19.94
2022-08-02T01:43:01.316Z,19.93
2022-08-02T01:45:35.820Z,19.92
2022-08-02T01:48:12.449Z,19.91
2022-08-02T01:50:48.319Z,19.91
2022-08-02T01:53:23.009Z,19.91
2022-08-02T01:55:59.160Z,19.89
2022-08-02T01:58:33.878Z,19.86
2022-08-02T02:01:10.438Z,19.83
2022-08-02T02:03:48.914Z,19.80
2022-08-02T02:06:22.910Z,19.76
2022-08-02T02:08:55.913Z,19.74
2022-08-02T02:12:11.804Z,19.67
2022-08-02T02:14:20.793Z,19.59
2022-08-02T02:16:56.877Z,19.53
2022-08-02T02:19:29.224Z,19.45
2022-08-02T02:22:01.538Z,19.38
2022-08-02T02:24:37.297Z,19.31
2022-08-02T02:27:11.896Z,19.34
2022-08-02T02:29:52.276Z,19.33
2022-08-02T02:32:27.618Z,19.32
2022-08-02T02:35:01.442Z,19.25
2022-08-02T02:37:35.378Z,19.15
2022-08-02T02:40:09.083Z,19.11
2022-08-02T02:42:43.037Z,19.15
2022-08-02T02:45:21.954Z,19.19
2022-08-02T02:47:55.941Z,19.21
2022-08-02T02:50:28.716Z,19.21
2022-08-02T02:53:01.475Z,19.22
2022-08-02T02:55:34.158Z,19.23
2022-08-02T02:58:12.798Z,19.23
2022-08-02T03:01:03.778Z,19.21
2022-08-02T03:03:36.163Z,19.20
2022-08-02T03:06:15.800Z,19.17
2022-08-02T03:08:47.985Z,19.11
2022-08-02T03:11:20.064Z,19.07
2022-08-02T03:13:53.860Z,18.98
2022-08-02T03:16:28.333Z,18.99
2022-08-02T03:19:02.080Z,18.99
2022-08-02T03:21:33.637Z,18.97
2022-08-02T03:24:06.608Z,18.95
2022-08-02T03:26:42.216Z,18.96
2022-08-02T03:29:13.958Z,18.96
2022-08-02T03:31:51.454Z,18.93
2022-08-02T03:34:26.729Z,18.94
2022-08-02T03:36:59.856Z,18.97
2022-08-02T03:39:35.704Z,18.96
2022-08-02T03:42:09.131Z,18.94
2022-08-02T03:44:48.963Z,18.97
2022-08-02T03:47:22.056Z,18.97
2022-08-02T03:49:55.950Z,18.99
2022-08-02T03:52:31.546Z,19.01
2022-08-02T03:55:03.849Z,19.01
2022-08-02T03:57:39.750Z,18.97
2022-08-02T04:00:18.011Z,18.95
2022-08-02T04:02:50.065Z,18.96
2022-08-02T04:05:21.922Z,18.98
2022-08-02T04:08:33.786Z,19.00
2022-08-02T04:11:04.475Z,19.00
2022-08-02T04:13:37.838Z,19.01
2022-08-02T04:16:23.259Z,19.00
2022-08-02T04:19:05.505Z,18.94
2022-08-02T04:21:51.357Z,18.91
2022-08-02T04:24:32.178Z,18.89
2022-08-02T04:27:49.123Z,18.91
2022-08-02T04:30:00.811Z,18.91
2022-08-02T04:32:33.142Z,18.86
2022-08-02T04:35:21.124Z,18.87
2022-08-02T04:38:09.999Z,18.92
2022-08-02T04:40:54.036Z,19.00
2022-08-02T04:43:27.851Z,19.07
2022-08-02T04:46:02.687Z,19.11
2022-08-02T04:48:34.410Z,19.17
2022-08-02T04:51:06.761Z,19.27
2022-08-02T04:53:38.391Z,19.40
2022-08-02T04:56:11.212Z,19.60
2022-08-02T04:58:44.890Z,19.78
2022-08-02T05:01:16.791Z,19.99
2022-08-02T05:03:48.476Z,20.20
2022-08-02T05:06:20.299Z,20.43
2022-08-02T05:08:53.300Z,20.62
2022-08-02T05:11:36.210Z,20.80
2022-08-02T05:14:09.026Z,20.98
2022-08-02T05:16:40.620Z,21.11
2022-08-02T05:19:12.261Z,21.22
2022-08-02T05:21:43.851Z,21.30
2022-08-02T05:24:15.598Z,21.45
2022-08-02T05:26:47.209Z,21.67
2022-08-02T05:29:21.414Z,21.88
2022-08-02T05:31:53.128Z,22.11
2022-08-02T05:34:24.809Z,22.32
2022-08-02T05:36:56.975Z,22.51
2022-08-02T05:39:31.905Z,22.70
2022-08-02T05:42:03.879Z,22.92
2022-08-02T05:44:35.568Z,23.11
2022-08-02T05:47:07.450Z,23.32
2022-08-02T05:49:39.102Z,23.25
2022-08-02T05:52:19.731Z,23.25
2022-08-02T05:55:16.077Z,23.37
2022-08-02T05:58:12.470Z,23.64
2022-08-02T06:00:45.585Z,23.79
2022-08-02T06:03:31.372Z,23.91
2022-08-02T06:06:13.382Z,24.03
2022-08-02T06:08:49.860Z,24.19
2022-08-02T06:11:23.560Z,24.37
2022-08-02T06:14:04.409Z,24.55
2022-08-02T06:16:41.917Z,24.74
2022-08-02T06:19:14.110Z,24.99
2022-08-02T06:22:32.599Z,25.11
2022-08-02T06:24:38.125Z,25.23
2022-08-02T06:27:10.995Z,25.43
2022-08-02T06:29:48.769Z,25.53
2022-08-02T06:32:21.707Z,25.55
2022-08-02T06:34:53.318Z,25.76
2022-08-02T06:37:35.845Z,26.00
2022-08-02T06:40:18.842Z,26.21
2022-08-02T06:43:14.700Z,26.43
2022-08-02T06:45:46.395Z,26.49
2022-08-02T06:48:18.132Z,26.55
2022-08-02T06:50:49.762Z,26.80
2022-08-02T06:53:21.414Z,27.04
2022-08-02T06:55:52.999Z,27.21
2022-08-02T06:58:24.748Z,27.43
2022-08-02T07:00:56.751Z,27.55
2022-08-02T07:03:28.588Z,27.67
2022-08-02T07:06:00.307Z,27.70
2022-08-02T07:08:34.041Z,27.64
2022-08-02T07:11:06.571Z,27.66
2022-08-02T07:13:39.955Z,27.72
2022-08-02T07:16:11.758Z,27.87
2022-08-02T07:18:43.380Z,27.80
2022-08-02T07:21:14.957Z,27.69
2022-08-02T07:23:47.716Z,27.87
2022-08-02T07:26:19.303Z,28.18
2022-08-02T07:28:51.003Z,28.48
2022-08-02T07:31:22.875Z,28.72
2022-08-02T07:33:54.530Z,28.79
2022-08-02T07:36:26.131Z,28.82
2022-08-02T07:38:58.117Z,28.99
2022-08-02T07:41:30.222Z,29.21
2022-08-02T07:44:02.123Z,29.23
2022-08-02T07:46:33.783Z,28.98
2022-08-02T07:49:05.530Z,28.89
2022-08-02T07:51:37.190Z,29.15
2022-08-02T07:54:08.779Z,29.33
2022-08-02T07:56:41.777Z,29.44
2022-08-02T07:59:13.492Z,29.60
2022-08-02T08:01:46.239Z,29.67
2022-08-02T08:04:18.541Z,29.74
2022-08-02T08:06:52.174Z,29.66
2022-08-02T08:09:23.934Z,29.82
2022-08-02T08:11:55.566Z,29.95
2022-08-02T08:14:27.190Z,30.27
2022-08-02T08:16:58.786Z,30.30
2022-08-02T08:19:36.498Z,30.57
2022-08-02T08:22:23.680Z,30.72
2022-08-02T08:24:55.274Z,30.55
2022-08-02T08:27:26.903Z,30.86
2022-08-02T08:29:58.565Z,31.09
2022-08-02T08:32:30.228Z,30.87
2022-08-02T08:35:03.850Z,30.65
2022-08-02T08:37:39.479Z,30.87
2022-08-02T08:40:12.640Z,30.98
2022-08-02T08:42:44.267Z,31.30
2022-08-02T08:45:17.936Z,31.48
2022-08-02T08:48:00.252Z,31.50
2022-08-02T08:50:36.541Z,31.59
2022-08-02T08:53:09.077Z,31.22
2022-08-02T08:55:45.380Z,30.71
2022-08-02T08:58:17.212Z,30.30
2022-08-02T09:00:49.297Z,30.28
2022-08-02T09:03:22.852Z,30.20
2022-08-02T09:05:59.073Z,30.11
2022-08-02T09:08:31.113Z,29.95
2022-08-02T09:11:12.759Z,29.67
2022-08-02T09:13:56.674Z,29.35
2022-08-02T09:16:37.665Z,28.87
2022-08-02T09:19:20.592Z,28.40
2022-08-02T09:22:01.739Z,28.42
2022-08-02T09:24:48.072Z,28.68
2022-08-02T09:27:23.131Z,28.73
2022-08-02T09:30:12.269Z,28.42
2022-08-02T09:32:47.858Z,28.11
2022-08-02T09:36:07.354Z,28.16
2022-08-02T09:38:29.410Z,28.81
2022-08-02T09:41:01.842Z,28.82
2022-08-02T09:43:38.617Z,28.96
2022-08-02T09:46:32.343Z,29.13
2022-08-02T09:49:09.119Z,28.92
2022-08-02T09:51:47.353Z,28.59
2022-08-02T09:54:23.193Z,28.49
2022-08-02T09:57:00.659Z,28.24
2022-08-02T09:59:32.656Z,28.18
2022-08-02T10:02:17.576Z,28.24
2022-08-02T10:04:54.193Z,28.51
2022-08-02T10:07:26.075Z,28.93
2022-08-02T10:09:58.196Z,29.23
2022-08-02T10:12:30.139Z,29.59
2022-08-02T10:15:02.496Z,29.75
2022-08-02T10:17:35.553Z,30.00
2022-08-02T10:20:07.705Z,30.06
2022-08-02T10:22:40.805Z,29.71
2022-08-02T10:25:13.311Z,29.56
2022-08-02T10:28:04.109Z,29.73
2022-08-02T10:30:39.490Z,29.77
2022-08-02T10:33:13.148Z,29.76
2022-08-02T10:35:47.514Z,29.63
2022-08-02T10:38:36.884Z,29.49
2022-08-02T10:41:08.553Z,29.18
2022-08-02T10:43:43.124Z,29.12
2022-08-02T10:46:35.757Z,29.13
2022-08-02T10:49:39.285Z,29.11
2022-08-02T10:52:14.335Z,29.10
2022-08-02T10:54:59.323Z,28.94
2022-08-02T10:57:36.444Z,29.16
2022-08-02T11:00:19.240Z,29.42
2022-08-02T11:02:54.181Z,29.37
2022-08-02T11:05:42.212Z,29.42
2022-08-02T11:08:22.504Z,29.34
2022-08-02T11:11:10.007Z,29.43
2022-08-02T11:14:02.587Z,29.41
2022-08-02T11:16:56.609Z,29.66
2022-08-02T11:19:29.172Z,29.86
2022-08-02T11:22:11.720Z,29.61
2022-08-02T11:24:43.510Z,29.41
2022-08-02T11:27:21.925Z,29.43
2022-08-02T11:29:54.059Z,29.57
2022-08-02T11:32:30.561Z,29.75
2022-08-02T11:35:03.542Z,29.86
2022-08-02T11:37:36.694Z,29.76
2022-08-02T11:40:18.947Z,29.75
2022-08-02T11:42:53.648Z,29.72
2022-08-02T11:45:29.738Z,29.63
2022-08-02T11:48:01.635Z,29.45
2022-08-02T11:50:33.990Z,29.21
2022-08-02T11:53:16.412Z,28.90
2022-08-02T11:55:48.154Z,28.54
2022-08-02T11:58:19.716Z,28.70
2022-08-02T12:00:53.837Z,28.71
2022-08-02T12:03:25.477Z,28.94
2022-08-02T12:06:06.108Z,29.19
2022-08-02T12:08:38.625Z,29.42
2022-08-02T12:11:10.276Z,29.47
2022-08-02T12:13:44.245Z,29.41
2022-08-02T12:16:34.672Z,29.33
2022-08-02T12:19:18.919Z,29.22
2022-08-02T12:22:10.067Z,29.21
2022-08-02T12:24:50.934Z,29.10
2022-08-02T12:27:35.189Z,29.05
2022-08-02T12:30:10.739Z,29.18
2022-08-02T12:32:43.258Z,29.43
2022-08-02T12:35:26.836Z,29.70
2022-08-02T12:38:10.442Z,29.87
2022-08-02T12:40:42.473Z,29.99
2022-08-02T12:43:32.394Z,29.94
2022-08-02T12:46:04.230Z,29.81
2022-08-02T12:48:52.290Z,29.82
2022-08-02T12:51:56.485Z,30.02
2022-08-02T12:54:40.381Z,30.27
2022-08-02T12:57:14.263Z,30.34
2022-08-02T12:59:53.248Z,30.38
2022-08-02T13:02:25.071Z,30.25
2022-08-02T13:05:00.036Z,30.07
2022-08-02T13:07:31.626Z,29.86
2022-08-02T13:10:03.853Z,29.79
2022-08-02T13:12:37.436Z,29.85
2022-08-02T13:15:12.342Z,29.81
2022-08-02T13:18:01.921Z,29.61
2022-08-02T13:20:33.588Z,29.40
2022-08-02T13:23:06.187Z,29.38
2022-08-02T13:25:37.945Z,29.15
2022-08-02T13:28:09.552Z,29.03
2022-08-02T13:30:41.198Z,28.88
2022-08-02T13:33:13.179Z,28.77
2022-08-02T13:35:45.934Z,28.75
2022-08-02T13:38:19.843Z,28.76
2022-08-02T13:41:09.798Z,28.68
2022-08-02T13:43:52.792Z,28.70
2022-08-02T13:46:29.006Z,28.71
2022-08-02T13:49:01.955Z,28.59
2022-08-02T13:51:33.824Z,28.43
2022-08-02T13:54:08.958Z,28.44
2022-08-02T13:56:40.617Z,28.44
2022-08-02T13:59:54.110Z,28.55
2022-08-02T14:02:03.991Z,28.67
2022-08-02T14:04:36.873Z,28.82
2022-08-02T14:07:08.596Z,29.00
2022-08-02T14:09:40.578Z,29.18
2022-08-02T14:12:13.372Z,29.30
2022-08-02T14:14:45.206Z,29.20
2022-08-02T14:17:18.951Z,29.12
2022-08-02T14:19:50.958Z,28.98
2022-08-02T14:22:23.005Z,29.02
2022-08-02T14:24:57.551Z,29.14
2022-08-02T14:27:40.518Z,29.28
2022-08-02T14:30:12.644Z,29.32
2022-08-02T14:32:44.764Z,29.28
2022-08-02T14:35:16.443Z,29.26
2022-08-02T14:37:48.099Z,29.20
2022-08-02T14:40:30.768Z,29.18
2022-08-02T14:43:04.195Z,29.21
2022-08-02T14:45:39.764Z,29.21
2022-08-02T14:48:12.874Z,29.21
2022-08-02T14:50:44.473Z,29.30
2022-08-02T14:53:16.130Z,29.31
2022-08-02T14:55:47.809Z,29.42
2022-08-02T14:58:19.750Z,29.54
2022-08-02T15:00:51.426Z,29.56
2022-08-02T15:03:24.433Z,29.52
2022-08-02T15:05:56.448Z,29.35
2022-08-02T15:08:28.088Z,29.23
2022-08-02T15:10:59.655Z,29.26
2022-08-02T15:13:31.270Z,29.33
2022-08-02T15:16:03.275Z,29.37
2022-08-02T15:18:34.902Z,29.46
2022-08-02T15:21:40.334Z,29.46
2022-08-02T15:23:58.783Z,29.36
2022-08-02T15:26:30.330Z,29.32
2022-08-02T15:29:01.982Z,29.23
2022-08-02T15:31:33.831Z,29.17
2022-08-02T15:34:06.129Z,29.19
2022-08-02T15:36:37.826Z,29.29
2022-08-02T15:39:09.566Z,29.35
2022-08-02T15:41:41.178Z,29.34
2022-08-02T15:44:14.042Z,29.30
2022-08-02T15:46:45.636Z,29.28
2022-08-02T15:49:17.599Z,29.23
2022-08-02T15:51:50.790Z,29.04
2022-08-02T15:54:24.466Z,29.00
2022-08-02T15:56:56.033Z,28.97
2022-08-02T15:59:27.706Z,29.01
2022-08-02T16:01:59.337Z,29.06
2022-08-02T16:04:31.796Z,29.03
2022-08-02T16:07:03.605Z,29.10
2022-08-02T16:09:36.140Z,29.20
2022-08-02T16:12:08.175Z,29.20
2022-08-02T16:14:39.997Z,29.22
2022-08-02T16:17:11.586Z,29.02
2022-08-02T16:19:49.156Z,28.92
2022-08-02T16:22:22.233Z,28.81
2022-08-02T16:24:53.866Z,28.79
2022-08-02T16:27:25.492Z,28.78
2022-08-02T16:29:57.215Z,28.82
2022-08-02T16:32:28.813Z,28.83
2022-08-02T16:35:07.650Z,28.78
2022-08-02T16:37:51.943Z,28.79
2022-08-02T16:40:24.382Z,28.75
2022-08-02T16:42:56.309Z,28.72
2022-08-02T16:45:28.509Z,28.73
2022-08-02T16:48:05.641Z,28.70
2022-08-02T16:50:37.794Z,28.74
2022-08-02T16:53:12.200Z,28.73
2022-08-02T16:55:52.005Z,28.70
2022-08-02T16:58:27.424Z,28.61
2022-08-02T17:00:59.061Z,28.60
2022-08-02T17:03:55.709Z,28.61
2022-08-02T17:06:22.342Z,28.58
2022-08-02T17:08:58.074Z,28.50
2022-08-02T17:11:30.960Z,28.46
2022-08-02T17:14:02.845Z,28.43
2022-08-02T17:16:35.461Z,28.39
2022-08-02T17:19:07.874Z,28.36
2022-08-02T17:21:39.505Z,28.32
2022-08-02T17:24:11.058Z,28.23
2022-08-02T17:26:43.511Z,28.19
2022-08-02T17:29:18.016Z,28.14
2022-08-02T17:32:05.853Z,28.12
2022-08-02T17:34:40.895Z,28.11
2022-08-02T17:37:28.706Z,28.04
2022-08-02T17:40:03.001Z,27.97
2022-08-02T17:42:36.228Z,27.94
2022-08-02T17:45:17.085Z,27.93
2022-08-02T17:48:04.646Z,27.92
2022-08-02T17:50:37.329Z,27.88
2022-08-02T17:53:09.030Z,27.85
2022-08-02T17:55:42.553Z,27.81
2022-08-02T17:58:17.406Z,27.77
2022-08-02T18:00:48.984Z,27.76
2022-08-02T18:03:22.932Z,27.71
2022-08-02T18:05:55.370Z,27.70
2022-08-02T18:08:27.671Z,27.67
2022-08-02T18:10:59.284Z,27.62
2022-08-02T18:13:33.039Z,27.55
2022-08-02T18:16:20.944Z,27.50
2022-08-02T18:18:53.182Z,27.46
2022-08-02T18:21:24.806Z,27.45
2022-08-02T18:23:58.693Z,27.39
2022-08-02T18:26:30.944Z,27.37
2022-08-02T18:29:04.914Z,27.34
2022-08-02T18:31:40.228Z,27.28
2022-08-02T18:34:24.275Z,27.20
2022-08-02T18:36:56.038Z,27.16
2022-08-02T18:39:27.915Z,27.13
2022-08-02T18:42:04.832Z,27.10
2022-08-02T18:44:36.790Z,27.05
2022-08-02T18:47:11.429Z,27.02
2022-08-02T18:49:46.686Z,26.96
2022-08-02T18:52:31.607Z,26.88
2022-08-02T18:55:10.169Z,26.86
2022-08-02T18:58:16.946Z,26.81
2022-08-02T19:00:41.906Z,26.75
2022-08-02T19:03:14.929Z,26.70
2022-08-02T19:05:52.133Z,26.66
2022-08-02T19:08:26.275Z,26.62
2022-08-02T19:10:58.176Z,26.56
2022-08-02T19:13:36.951Z,26.53
2022-08-02T19:16:12.377Z,26.47
2022-08-02T19:18:44.085Z,26.39
2022-08-02T19:21:18.468Z,26.34
2022-08-02T19:24:10.134Z,26.33
2022-08-02T19:26:42.078Z,26.32
2022-08-02T19:29:13.821Z,26.30
2022-08-02T19:32:00.226Z,26.27
2022-08-02T19:34:34.039Z,26.19
2022-08-02T19:37:09.721Z,26.14
2022-08-02T19:39:49.161Z,26.09
2022-08-02T19:42:22.018Z,26.04
2022-08-02T19:44:53.694Z,25.99
2022-08-02T19:47:25.341Z,25.96
2022-08-02T19:50:14.812Z,25.92
2022-08-02T19:52:47.058Z,25.87
2022-08-02T19:56:00.260Z,25.87
2022-08-02T19:58:16.114Z,25.84
2022-08-02T20:00:47.726Z,25.78
2022-08-02T20:03:20.672Z,25.72
2022-08-02T20:06:13.764Z,25.64
2022-08-02T20:08:53.355Z,25.55
2022-08-02T20:11:34.710Z,25.47
2022-08-02T20:14:07.656Z,25.42
2022-08-02T20:16:39.471Z,25.35
2022-08-02T20:19:13.935Z,25.28
2022-08-02T20:21:52.954Z,25.23
2022-08-02T20:24:29.990Z,25.15
2022-08-02T20:27:02.080Z,25.08
2022-08-02T20:29:43.133Z,25.02
2022-08-02T20:32:23.722Z,24.95
2022-08-02T20:34:55.433Z,24.86
2022-08-02T20:38:00.380Z,24.78
2022-08-02T20:40:18.997Z,24.69
2022-08-02T20:42:51.274Z,24.61
2022-08-02T20:45:27.115Z,24.56
2022-08-02T20:47:58.897Z,24.51
2022-08-02T20:50:50.753Z,24.43
2022-08-02T20:53:23.625Z,24.38
2022-08-02T20:55:57.653Z,24.35
2022-08-02T20:58:29.388Z,24.32
2022-08-02T21:01:02.773Z,24.27
2022-08-02T21:03:40.136Z,24.23
2022-08-02T21:06:15.029Z,24.17
2022-08-02T21:08:48.595Z,24.13
2022-08-02T21:11:20.264Z,24.09
2022-08-02T21:14:07.528Z,24.07
2022-08-02T21:16:40.547Z,24.05
2022-08-02T21:19:12.438Z,24.03
2022-08-02T21:21:43.993Z,24.02
2022-08-02T21:24:17.662Z,23.97
2022-08-02T21:26:56.206Z,23.93
2022-08-02T21:29:28.258Z,23.93
2022-08-02T21:32:05.139Z,23.90
2022-08-02T21:34:36.906Z,23.85
2022-08-02T21:37:09.781Z,23.80
2022-08-02T21:39:41.831Z,23.77
2022-08-02T21:42:22.321Z,23.72
2022-08-02T21:44:55.716Z,23.66
2022-08-02T21:47:27.425Z,23.61
2022-08-02T21:50:13.358Z,23.59
2022-08-02T21:52:52.333Z,23.53
2022-08-02T21:56:00.540Z,23.45
2022-08-02T21:58:15.917Z,23.41
2022-08-02T22:00:51.725Z,23.37
2022-08-02T22:03:23.843Z,23.36
2022-08-02T22:05:55.492Z,23.31
2022-08-02T22:08:27.199Z,23.27
2022-08-02T22:11:03.268Z,23.20
2022-08-02T22:13:38.748Z,23.17
2022-08-02T22:16:19.347Z,23.12
2022-08-02T22:18:52.764Z,23.08
2022-08-02T22:21:32.379Z,23.06
2022-08-02T22:24:19.419Z,23.02
2022-08-02T22:27:01.185Z,22.98
2022-08-02T22:29:34.122Z,22.96
2022-08-02T22:32:06.557Z,22.94
2022-08-02T22:34:51.820Z,22.92
2022-08-02T22:38:15.039Z,22.91
2022-08-02T22:40:15.702Z,22.88
2022-08-02T22:42:48.810Z,22.85
2022-08-02T22:45:21.130Z,22.83
2022-08-02T22:47:55.734Z,22.80
2022-08-02T22:50:27.609Z,22.75
2022-08-02T22:52:59.741Z,22.69
2022-08-02T22:55:41.379Z,22.63
2022-08-02T22:58:13.842Z,22.60
2022-08-02T23:00:45.904Z,22.58
2022-08-02T23:03:17.457Z,22.57
2022-08-02T23:05:50.037Z,22.53
2022-08-02T23:08:22.089Z,22.51
2022-08-02T23:10:53.711Z,22.47
2022-08-02T23:13:28.274Z,22.43
2022-08-02T23:16:18.289Z,22.40
2022-08-02T23:19:25.324Z,22.35
2022-08-02T23:22:01.707Z,22.30
2022-08-02T23:24:35.782Z,22.27
2022-08-02T23:27:07.485Z,22.28
2022-08-02T23:29:39.078Z,22.26
2022-08-02T23:32:11.032Z,22.23
2022-08-02T23:34:43.311Z,22.18
2022-08-02T23:37:14.916Z,22.15
2022-08-02T23:39:46.549Z,22.12
2022-08-02T23:42:18.458Z,22.10
2022-08-02T23:44:50.231Z,22.06
2022-08-02T23:47:21.901Z,22.02
2022-08-02T23:49:53.550Z,21.99
2022-08-02T23:52:25.306Z,21.94
2022-08-02T23:54:56.924Z,21.89
2022-08-02T23:57:28.512Z,21.86
